Terminal Aerodrome Forecast
Issued by NWS

Home | Current Version | Previous Version | Text Only | Print | Product List | Glossary On
Versions: 1 2 3 4 5 6 7 8 9 10 11 12 13 14
000
FTUS45 KRIW 011729
TAFRKS
TAF
KRKS 011729Z 0118/0218 23011KT P6SM SCT090
     FM012030 VRB20G32KT P6SM VCTS SCT080CB BKN120
     FM020100 21012KT P6SM SCT110
     FM020400 21008KT P6SM SCT110=

USA.gov is the U.S. government's official web portal to all federal, state and local government web resources and services.